createdAt,value
2022-09-15T08:32:55.448Z,54.25
2022-09-15T08:35:29.370Z,48.00
2022-09-15T08:38:04.391Z,54.00
2022-09-15T08:57:55.031Z,79.40
2022-09-15T09:00:29.008Z,80.20
2022-09-15T09:03:03.038Z,85.00
2022-09-15T09:05:37.859Z,76.50
2022-09-15T09:08:12.760Z,76.75
2022-09-15T09:10:47.044Z,77.75
2022-09-15T09:13:21.276Z,77.00
2022-09-15T09:15:55.304Z,75.50
2022-09-15T09:18:29.516Z,77.75
2022-09-15T09:21:03.463Z,74.75
2022-09-15T09:23:37.740Z,79.25
2022-09-15T09:26:11.575Z,73.60
2022-09-15T09:28:45.475Z,72.50
2022-09-15T09:31:19.542Z,76.40
2022-09-15T09:33:53.917Z,75.25
2022-09-15T09:36:28.010Z,71.60
2022-09-15T09:39:02.012Z,68.00
2022-09-15T09:41:39.743Z,69.25
2022-09-15T09:44:13.712Z,62.50
2022-09-15T09:46:48.292Z,62.25
2022-09-15T09:49:23.787Z,62.75
2022-09-15T09:51:58.100Z,68.50
2022-09-15T09:54:32.243Z,60.40
2022-09-15T09:57:06.133Z,58.00
2022-09-15T09:59:40.010Z,56.25
2022-09-15T10:02:14.224Z,59.25
2022-09-15T10:04:48.367Z,60.25
2022-09-15T10:07:22.365Z,61.00
2022-09-15T10:09:56.713Z,59.00
2022-09-15T10:12:31.272Z,55.20
2022-09-15T10:15:05.205Z,56.75
2022-09-15T10:17:39.321Z,58.00
2022-09-15T10:20:15.000Z,56.20
2022-09-15T10:22:48.983Z,54.60
2022-09-15T10:25:23.024Z,52.50
2022-09-15T10:27:58.094Z,52.60
2022-09-15T10:30:31.986Z,56.25
2022-09-15T10:33:05.998Z,57.00
2022-09-15T10:35:40.051Z,58.00
2022-09-15T10:38:16.644Z,53.80
2022-09-15T10:40:50.684Z,53.25
2022-09-15T10:43:27.409Z,49.20
2022-09-15T10:46:02.083Z,52.60
2022-09-15T10:48:36.161Z,52.00
2022-09-15T10:51:10.227Z,52.50
2022-09-15T10:53:44.187Z,49.50
2022-09-15T10:56:18.515Z,46.50
2022-09-15T10:58:53.110Z,51.00
2022-09-15T11:01:31.030Z,50.80
2022-09-15T11:04:06.349Z,51.00
2022-09-15T11:06:53.026Z,52.40
2022-09-15T11:09:30.172Z,52.00
2022-09-15T11:12:05.069Z,49.00
2022-09-15T11:14:38.987Z,47.00
2022-09-15T11:17:13.024Z,49.40
2022-09-15T11:19:46.862Z,48.50
2022-09-15T11:22:22.794Z,50.00
2022-09-15T11:24:56.750Z,48.00
2022-09-15T11:27:30.892Z,50.00
2022-09-15T11:30:04.912Z,45.00
2022-09-15T11:32:38.925Z,48.50
2022-09-15T11:35:14.219Z,50.00
2022-09-15T11:37:48.291Z,49.50
2022-09-15T11:40:23.113Z,42.50
2022-09-15T11:42:57.683Z,46.50
2022-09-15T11:45:31.826Z,45.00
2022-09-15T11:48:05.821Z,48.75
2022-09-15T11:50:39.721Z,47.00
2022-09-15T11:53:13.924Z,45.60
2022-09-15T11:55:47.925Z,40.00
2022-09-15T11:58:22.443Z,46.50
2022-09-15T12:00:56.606Z,40.00
2022-09-15T12:03:31.250Z,35.00
2022-09-15T12:06:05.464Z,43.40
2022-09-15T12:08:39.436Z,40.50
2022-09-15T12:11:13.358Z,41.40
2022-09-15T12:13:47.626Z,43.75
2022-09-15T12:16:24.288Z,42.50
2022-09-15T12:18:58.327Z,41.50
2022-09-15T12:21:34.891Z,45.00
2022-09-15T12:24:09.621Z,39.50
2022-09-15T12:26:44.218Z,39.00
2022-09-15T12:29:18.224Z,42.20
2022-09-15T12:31:52.227Z,49.40
2022-09-15T12:34:26.367Z,46.60
2022-09-15T12:39:39.132Z,40.50
2022-09-15T12:42:13.014Z,39.80
2022-09-15T12:44:55.991Z,42.50
2022-09-15T12:47:30.070Z,45.00
2022-09-15T12:50:04.274Z,47.00
2022-09-15T12:52:38.192Z,41.40
2022-09-15T12:55:12.132Z,45.20
2022-09-15T12:57:46.394Z,46.60
2022-09-15T13:00:20.449Z,36.20
2022-09-15T13:02:54.552Z,41.00
2022-09-15T13:05:28.553Z,41.75
2022-09-15T13:08:02.516Z,36.25
2022-09-15T13:10:36.788Z,39.00
2022-09-15T13:13:12.957Z,40.75
2022-09-15T13:15:47.138Z,40.75
2022-09-15T13:18:21.448Z,33.20
2022-09-15T13:20:55.624Z,34.80
2022-09-15T13:23:30.635Z,33.20
2022-09-15T13:26:04.672Z,29.80
2022-09-15T13:28:42.742Z,32.00
2022-09-15T13:31:16.899Z,43.00
2022-09-15T13:39:38.943Z,44.40
2022-09-15T13:42:13.102Z,32.20
2022-09-15T13:45:13.778Z,42.40
2022-09-15T13:47:47.936Z,42.20
2022-09-15T13:50:21.908Z,28.50
2022-09-15T13:52:55.787Z,30.00
2022-09-15T13:55:30.331Z,28.25
2022-09-15T14:00:58.445Z,36.00
2022-09-15T14:03:37.662Z,31.20
2022-09-15T14:06:12.087Z,30.00
2022-09-15T14:08:46.059Z,33.20
2022-09-15T14:11:20.939Z,34.60
2022-09-15T14:13:54.842Z,32.00
2022-09-15T14:16:28.899Z,26.50
2022-09-15T14:19:02.856Z,27.60
2022-09-15T14:21:37.109Z,32.25
2022-09-15T14:24:11.274Z,31.00
2022-09-15T14:26:45.268Z,41.00
2022-09-15T14:29:19.391Z,38.75
2022-09-15T14:31:54.001Z,44.25
2022-09-15T14:34:28.066Z,32.75
2022-09-15T14:37:02.028Z,32.20
2022-09-15T14:39:38.620Z,35.75
2022-09-15T14:42:12.986Z,37.80
2022-09-15T14:47:41.079Z,30.40
2022-09-15T14:50:15.197Z,32.00
2022-09-15T14:52:49.268Z,43.80
2022-09-15T14:55:25.418Z,40.00
2022-09-15T14:57:59.305Z,38.60
2022-09-15T15:00:33.391Z,43.40
2022-09-15T15:03:07.689Z,43.80
2022-09-15T15:05:42.616Z,48.20
2022-09-15T15:08:16.582Z,40.00
2022-09-15T15:10:50.722Z,45.60
2022-09-15T15:13:24.572Z,32.00
2022-09-15T15:15:58.672Z,37.50
2022-09-15T15:18:32.536Z,37.75
2022-09-15T15:21:06.705Z,35.00
2022-09-15T15:23:44.485Z,30.00
2022-09-15T15:26:20.641Z,40.25
2022-09-15T15:28:54.953Z,48.00
2022-09-15T15:31:28.981Z,45.60
2022-09-15T15:34:06.111Z,51.80
2022-09-15T15:36:40.284Z,44.75
2022-09-15T15:39:14.344Z,41.00
2022-09-15T15:44:23.015Z,36.20
2022-09-15T15:46:57.099Z,37.00
2022-09-15T15:49:31.837Z,33.00
2022-09-15T15:52:06.745Z,40.60
2022-09-15T15:54:41.220Z,36.60
2022-09-15T15:57:15.290Z,32.25
2022-09-15T15:59:49.089Z,30.00
2022-09-15T16:02:23.206Z,30.33
2022-09-15T16:04:57.178Z,39.00
2022-09-15T16:07:33.463Z,49.00
2022-09-15T16:10:07.686Z,49.75
2022-09-15T16:12:41.617Z,48.50
2022-09-15T16:15:15.760Z,47.40
2022-09-15T16:17:51.322Z,44.50
2022-09-15T16:20:29.191Z,43.80
2022-09-15T16:23:03.224Z,39.25
2022-09-15T16:25:37.216Z,44.60
2022-09-15T16:28:11.212Z,48.75
2022-09-15T16:30:45.058Z,36.80
2022-09-15T16:33:19.040Z,39.00
2022-09-15T16:35:52.923Z,45.00
2022-09-15T16:38:29.058Z,41.60
2022-09-15T16:41:03.113Z,40.20
2022-09-15T16:43:37.018Z,47.60
2022-09-15T16:46:11.234Z,46.50
2022-09-15T16:48:45.310Z,50.00
2022-09-15T16:51:34.495Z,52.00
2022-09-15T16:54:08.446Z,51.00
2022-09-15T16:56:42.356Z,50.00
2022-09-15T16:59:17.353Z,49.50
2022-09-15T17:01:52.390Z,47.40
2022-09-15T17:04:26.422Z,47.50
2022-09-15T17:07:00.878Z,42.00
2022-09-15T17:09:34.860Z,41.20
2022-09-15T17:12:08.972Z,33.80
2022-09-15T17:14:43.140Z,34.67
2022-09-15T17:17:16.988Z,34.00
2022-09-15T17:19:51.086Z,36.00
2022-09-15T17:22:24.965Z,28.00
2022-09-15T17:24:58.837Z,30.40
2022-09-15T17:27:32.742Z,22.75
2022-09-15T17:30:08.130Z,24.00
2022-09-15T17:32:42.528Z,20.80
2022-09-15T17:35:16.640Z,22.00
2022-09-15T17:37:50.783Z,21.25
2022-09-15T17:40:24.805Z,24.50
2022-09-15T17:42:59.036Z,22.40
2022-09-15T17:45:33.004Z,21.00
2022-09-15T17:48:07.047Z,19.40
2022-09-15T17:50:41.080Z,26.00
2022-09-15T17:53:14.959Z,22.00
2022-09-15T17:55:49.238Z,21.40
2022-09-15T17:58:27.557Z,18.40
2022-09-15T18:01:04.664Z,23.00
2022-09-15T18:03:38.751Z,18.60
2022-09-15T18:06:12.792Z,19.00
2022-09-15T18:08:46.830Z,19.00
2022-09-15T18:11:21.295Z,16.75
2022-09-15T18:13:55.448Z,20.00
2022-09-15T18:16:29.507Z,18.00
2022-09-15T18:19:03.412Z,18.80
2022-09-15T18:21:37.295Z,25.00
2022-09-15T18:24:11.310Z,18.75
2022-09-15T18:26:46.071Z,23.25
2022-09-15T18:29:20.120Z,17.75
2022-09-15T18:31:54.092Z,19.40
2022-09-15T18:34:28.054Z,18.00
2022-09-15T18:37:02.459Z,21.67
2022-09-15T18:39:36.441Z,25.20
2022-09-15T18:42:11.057Z,17.00
2022-09-15T18:44:45.067Z,20.25
2022-09-15T18:47:19.259Z,18.50
2022-09-15T18:49:53.156Z,16.25
2022-09-15T18:52:27.693Z,19.00
2022-09-15T18:55:01.631Z,16.60
2022-09-15T18:57:36.021Z,19.50
2022-09-15T19:00:10.643Z,22.00
2022-09-15T19:02:44.894Z,17.50
2022-09-15T19:05:19.102Z,21.00
2022-09-15T19:07:53.179Z,21.00
2022-09-15T19:10:27.717Z,19.20
2022-09-15T19:13:01.847Z,22.00
2022-09-15T19:15:36.065Z,24.40
2022-09-15T19:18:47.347Z,17.25
2022-09-15T19:21:25.264Z,23.00
2022-09-15T19:24:01.315Z,19.25
2022-09-15T19:27:09.293Z,23.60
2022-09-15T19:29:43.508Z,29.00
2022-09-15T19:32:20.248Z,26.75
2022-09-15T19:34:54.138Z,22.20
2022-09-15T19:37:28.198Z,21.60
2022-09-15T19:40:03.671Z,30.00
2022-09-15T19:42:37.546Z,24.75
2022-09-15T19:45:12.110Z,30.25
2022-09-15T19:47:46.137Z,23.75
2022-09-15T19:50:20.109Z,21.60
2022-09-15T19:52:58.825Z,23.00
2022-09-15T19:55:35.198Z,20.80
2022-09-15T19:58:09.242Z,26.50
2022-09-15T20:00:43.477Z,33.00
2022-09-15T20:03:17.390Z,24.20
2022-09-15T20:05:51.553Z,21.25
2022-09-15T20:08:25.571Z,22.00
2022-09-15T20:10:59.728Z,22.60
2022-09-15T20:13:33.749Z,24.00
2022-09-15T20:16:07.855Z,23.60
2022-09-15T20:18:43.756Z,20.00
2022-09-15T20:21:32.588Z,19.00
2022-09-15T20:24:11.791Z,24.00
2022-09-15T20:26:45.765Z,20.75
2022-09-15T20:29:19.719Z,18.75
2022-09-15T20:31:54.065Z,21.40
2022-09-15T20:34:27.891Z,20.00
2022-09-15T20:37:01.946Z,22.40
2022-09-15T20:39:36.630Z,19.40
2022-09-15T20:42:10.818Z,17.50
2022-09-15T20:44:44.690Z,19.00
2022-09-15T20:47:19.699Z,18.00
2022-09-15T20:49:53.992Z,17.00
2022-09-15T20:52:29.579Z,16.00
2022-09-15T20:55:03.645Z,19.00
2022-09-15T20:57:38.679Z,16.00
2022-09-15T21:00:12.543Z,18.20
2022-09-15T21:02:46.711Z,18.50
2022-09-15T21:05:20.813Z,20.00
2022-09-15T21:07:54.873Z,18.40
2022-09-15T21:10:28.926Z,19.20
2022-09-15T21:13:03.279Z,19.40
2022-09-15T21:15:37.455Z,15.33
2022-09-15T21:18:12.722Z,15.20
2022-09-15T21:20:47.397Z,14.50
2022-09-15T21:23:21.522Z,12.00
2022-09-15T21:25:58.774Z,16.00
2022-09-15T21:28:35.244Z,14.00
2022-09-15T21:31:09.240Z,13.00
2022-09-15T21:33:43.142Z,15.80
2022-09-15T21:36:18.308Z,11.00
2022-09-15T21:38:52.604Z,14.20
2022-09-15T21:41:26.900Z,12.00
2022-09-15T21:44:01.844Z,16.00
2022-09-15T21:46:35.710Z,18.20
2022-09-15T21:49:09.697Z,14.67
2022-09-15T21:51:43.765Z,19.00
2022-09-15T21:54:17.806Z,13.00
2022-09-15T21:56:51.761Z,13.40
2022-09-15T21:59:25.790Z,16.00
2022-09-15T22:01:59.900Z,15.80
2022-09-15T22:04:34.117Z,15.00
2022-09-15T22:07:08.329Z,13.40
2022-09-15T22:09:42.359Z,14.00
2022-09-15T22:12:16.476Z,15.00
2022-09-15T22:14:50.575Z,12.60
2022-09-15T22:17:26.013Z,13.25
2022-09-15T22:20:00.498Z,13.50
2022-09-15T22:22:34.372Z,16.00
2022-09-15T22:25:08.938Z,13.80
2022-09-15T22:27:42.763Z,13.00
2022-09-15T22:30:16.621Z,15.40
2022-09-15T22:32:50.917Z,11.80
2022-09-15T22:35:25.917Z,13.00
2022-09-15T22:37:59.937Z,14.00
2022-09-15T22:40:34.167Z,7.20
2022-09-15T22:43:08.145Z,11.40
2022-09-15T22:45:42.212Z,8.40
2022-09-15T22:48:16.147Z,13.50
2022-09-15T22:50:50.187Z,10.00
2022-09-15T22:53:24.404Z,11.00
2022-09-15T22:55:58.425Z,15.00
2022-09-15T22:58:32.263Z,10.40
2022-09-15T23:01:06.407Z,11.50
2022-09-15T23:03:40.510Z,8.00
2022-09-15T23:06:14.660Z,10.75
2022-09-15T23:08:48.589Z,8.00
2022-09-15T23:11:22.662Z,7.50
2022-09-15T23:13:56.491Z,11.80
2022-09-15T23:16:30.614Z,9.00
2022-09-15T23:19:06.667Z,8.80
2022-09-15T23:21:41.187Z,7.00
2022-09-15T23:24:15.828Z,6.00
2022-09-15T23:26:49.801Z,8.00
2022-09-15T23:29:25.712Z,6.50
2022-09-15T23:31:59.752Z,8.80
2022-09-15T23:34:33.647Z,6.40
2022-09-15T23:37:08.046Z,5.60
2022-09-15T23:39:42.731Z,6.00
2022-09-15T23:42:19.054Z,8.60
2022-09-15T23:44:53.175Z,6.00
2022-09-15T23:47:27.303Z,9.00
2022-09-15T23:50:01.591Z,7.00
2022-09-15T23:52:35.578Z,6.00
2022-09-15T23:55:09.593Z,7.00
2022-09-15T23:57:43.443Z,7.00
